Time,TemperatureF,DewpointF,PressureIn,WindDirection,WindDirectionDegrees,WindSpeedMPH,WindSpeedGustMPH,Humidity,HourlyPrecipIn,Conditions,Clouds,dailyrainin,SoftwareType,DateUTC
2013-02-23 00:00:00,41.0,36.0,-100.00,SE,137,4.0,-999.0,83,0.00,,,-99.99,,2013-02-23 08:00:00,
2013-02-23 00:21:00,41.0,36.0,-100.00,SE,137,4.0,-999.0,83,0.00,,,-99.99,,2013-02-23 08:21:00,
2013-02-23 00:32:00,41.0,36.0,-100.00,SE,137,4.0,-999.0,83,0.00,,,-99.99,,2013-02-23 08:32:00,
2013-02-23 00:42:00,41.0,36.0,-100.00,SE,137,4.0,-999.0,83,0.00,,,-99.99,,2013-02-23 08:42:00,
2013-02-23 00:52:00,41.0,36.0,-100.00,SE,137,4.0,-999.0,83,0.00,,,-99.99,,2013-02-23 08:52:00,
2013-02-23 01:00:00,41.0,37.0,-100.00,ESE,108,4.0,-999.0,84,0.00,,,-99.99,,2013-02-23 09:00:00,
2013-02-23 01:22:00,41.0,37.0,-100.00,ESE,108,4.0,-999.0,84,0.00,,,-99.99,,2013-02-23 09:22:00,
2013-02-23 01:32:00,41.0,37.0,-100.00,ESE,108,4.0,-999.0,84,0.00,,,-99.99,,2013-02-23 09:32:00,
2013-02-23 01:42:00,41.0,37.0,-100.00,ESE,108,4.0,-999.0,84,0.00,,,-99.99,,2013-02-23 09:42:00,
2013-02-23 01:52:00,41.0,37.0,-100.00,ESE,108,4.0,-999.0,84,0.00,,,-99.99,,2013-02-23 09:52:00,
2013-02-23 02:00:00,43.0,37.0,-100.00,ENE,63,4.0,-999.0,80,0.00,,,-99.99,,2013-02-23 10:00:00,
2013-02-23 02:21:00,43.0,37.0,-100.00,ENE,63,4.0,-999.0,80,0.00,,,-99.99,,2013-02-23 10:21:00,
2013-02-23 02:32:00,43.0,37.0,-100.00,ENE,63,4.0,-999.0,80,0.00,,,-99.99,,2013-02-23 10:32:00,
2013-02-23 02:42:00,43.0,37.0,-100.00,ENE,63,4.0,-999.0,80,0.00,,,-99.99,,2013-02-23 10:42:00,
2013-02-23 02:52:00,43.0,37.0,-100.00,ENE,63,4.0,-999.0,80,0.00,,,-99.99,,2013-02-23 10:52:00,
2013-02-23 03:00:00,40.0,36.0,-100.00,SE,136,1.0,-999.0,85,0.00,,,-99.99,,2013-02-23 11:00:00,
2013-02-23 03:22:00,40.0,36.0,-100.00,SE,136,1.0,-999.0,85,0.00,,,-99.99,,2013-02-23 11:22:00,
2013-02-23 03:32:00,40.0,36.0,-100.00,SE,136,1.0,-999.0,85,0.00,,,-99.99,,2013-02-23 11:32:00,
2013-02-23 03:42:00,40.0,36.0,-100.00,SE,136,1.0,-999.0,85,0.00,,,-99.99,,2013-02-23 11:42:00,
2013-02-23 03:52:00,40.0,36.0,-100.00,SE,136,1.0,-999.0,85,0.00,,,-99.99,,2013-02-23 11:52:00,
2013-02-23 04:00:00,39.0,35.0,-100.00,SSW,194,4.0,-999.0,85,0.00,,,-99.99,,2013-02-23 12:00:00,
2013-02-23 04:22:00,39.0,35.0,-100.00,SSW,194,4.0,-999.0,85,0.00,,,-99.99,,2013-02-23 12:22:00,
2013-02-23 04:32:00,39.0,35.0,-100.00,SSW,194,4.0,-999.0,85,0.00,,,-99.99,,2013-02-23 12:32:00,
2013-02-23 04:42:00,39.0,35.0,-100.00,SSW,194,4.0,-999.0,85,0.00,,,-99.99,,2013-02-23 12:42:00,
2013-02-23 04:52:00,39.0,35.0,-100.00,SSW,194,4.0,-999.0,85,0.00,,,-99.99,,2013-02-23 12:52:00,
2013-02-23 05:00:00,39.0,34.0,-100.00,ESE,102,3.0,-999.0,84,0.00,,,-99.99,,2013-02-23 13:00:00,
2013-02-23 05:22:00,39.0,34.0,-100.00,ESE,102,3.0,-999.0,84,0.00,,,-99.99,,2013-02-23 13:22:00,
2013-02-23 05:32:00,39.0,34.0,-100.00,ESE,102,3.0,-999.0,84,0.00,,,-99.99,,2013-02-23 13:32:00,
2013-02-23 05:42:00,39.0,34.0,-100.00,ESE,102,3.0,-999.0,84,0.00,,,-99.99,,2013-02-23 13:42:00,
2013-02-23 05:52:00,39.0,34.0,-100.00,ESE,102,3.0,-999.0,84,0.00,,,-99.99,,2013-02-23 13:52:00,
2013-02-23 06:00:00,37.0,33.0,-100.00,South,170,2.0,-999.0,87,0.00,,,-99.99,,2013-02-23 14:00:00,
2013-02-23 06:22:00,37.0,33.0,-100.00,South,170,2.0,-999.0,87,0.00,,,-99.99,,2013-02-23 14:22:00,
2013-02-23 06:32:00,37.0,33.0,-100.00,South,170,2.0,-999.0,87,0.00,,,-99.99,,2013-02-23 14:32:00,
2013-02-23 06:42:00,37.0,33.0,-100.00,South,170,2.0,-999.0,87,0.00,,,-99.99,,2013-02-23 14:42:00,
2013-02-23 06:52:00,37.0,33.0,-100.00,South,170,2.0,-999.0,87,0.00,,,-99.99,,2013-02-23 14:52:00,
2013-02-23 07:00:00,36.0,33.0,-100.00,East,95,0.0,-999.0,86,0.00,,,-99.99,,2013-02-23 15:00:00,
2013-02-23 07:22:00,36.0,33.0,-100.00,East,95,0.0,-999.0,86,0.00,,,-99.99,,2013-02-23 15:22:00,
2013-02-23 07:32:00,36.0,33.0,-100.00,East,95,0.0,-999.0,86,0.00,,,-99.99,,2013-02-23 15:32:00,
2013-02-23 07:42:00,36.0,33.0,-100.00,East,95,0.0,-999.0,86,0.00,,,-99.99,,2013-02-23 15:42:00,
2013-02-23 07:52:00,36.0,33.0,-100.00,East,95,0.0,-999.0,86,0.00,,,-99.99,,2013-02-23 15:52:00,
2013-02-23 08:00:00,40.0,35.0,-100.00,ENE,70,1.0,-999.0,83,0.00,,,-99.99,,2013-02-23 16:00:00,
2013-02-23 08:22:00,40.0,35.0,-100.00,ENE,70,1.0,-999.0,83,0.00,,,-99.99,,2013-02-23 16:22:00,
2013-02-23 08:32:00,40.0,35.0,-100.00,ENE,70,1.0,-999.0,83,0.00,,,-99.99,,2013-02-23 16:32:00,
2013-02-23 08:42:00,40.0,35.0,-100.00,ENE,70,1.0,-999.0,83,0.00,,,-99.99,,2013-02-23 16:42:00,
2013-02-23 08:52:00,40.0,35.0,-100.00,ENE,70,1.0,-999.0,83,0.00,,,-99.99,,2013-02-23 16:52:00,
2013-02-23 09:00:00,49.0,39.0,-100.00,East,99,2.0,-999.0,69,0.00,,,-99.99,,2013-02-23 17:00:00,
2013-02-23 09:22:00,49.0,39.0,-100.00,East,99,2.0,-999.0,69,0.00,,,-99.99,,2013-02-23 17:22:00,
2013-02-23 09:32:00,49.0,39.0,-100.00,East,99,2.0,-999.0,69,0.00,,,-99.99,,2013-02-23 17:32:00,
2013-02-23 09:42:00,49.0,39.0,-100.00,East,99,2.0,-999.0,69,0.00,,,-99.99,,2013-02-23 17:42:00,
2013-02-23 09:52:00,49.0,39.0,-100.00,East,99,2.0,-999.0,69,0.00,,,-99.99,,2013-02-23 17:52:00,
2013-02-23 10:00:00,54.0,36.0,-100.00,NNE,31,1.0,-999.0,51,0.00,,,-99.99,,2013-02-23 18:00:00,
2013-02-23 10:22:00,54.0,36.0,-100.00,NNE,31,1.0,-999.0,51,0.00,,,-99.99,,2013-02-23 18:22:00,
2013-02-23 10:32:00,54.0,36.0,-100.00,NNE,31,1.0,-999.0,51,0.00,,,-99.99,,2013-02-23 18:32:00,
2013-02-23 10:42:00,54.0,36.0,-100.00,NNE,31,1.0,-999.0,51,0.00,,,-99.99,,2013-02-23 18:42:00,
2013-02-23 10:52:00,54.0,36.0,-100.00,NNE,31,1.0,-999.0,51,0.00,,,-99.99,,2013-02-23 18:52:00,
2013-02-23 11:00:00,55.0,37.0,-100.00,NNW,340,4.0,-999.0,51,0.00,,,-99.99,,2013-02-23 19:00:00,
2013-02-23 11:21:00,55.0,37.0,-100.00,NNW,340,4.0,-999.0,51,0.00,,,-99.99,,2013-02-23 19:21:00,
2013-02-23 11:32:00,55.0,37.0,-100.00,NNW,340,4.0,-999.0,51,0.00,,,-99.99,,2013-02-23 19:32:00,
2013-02-23 11:42:00,55.0,37.0,-100.00,NNW,340,4.0,-999.0,51,0.00,,,-99.99,,2013-02-23 19:42:00,
2013-02-23 11:52:00,55.0,37.0,-100.00,NNW,340,4.0,-999.0,51,0.00,,,-99.99,,2013-02-23 19:52:00,
2013-02-23 12:00:00,56.0,38.0,-100.00,WNW,296,3.0,-999.0,50,0.00,,,-99.99,,2013-02-23 20:00:00,
2013-02-23 12:22:00,56.0,38.0,-100.00,WNW,296,3.0,-999.0,50,0.00,,,-99.99,,2013-02-23 20:22:00,
2013-02-23 12:32:00,56.0,38.0,-100.00,WNW,296,3.0,-999.0,50,0.00,,,-99.99,,2013-02-23 20:32:00,
2013-02-23 12:42:00,56.0,38.0,-100.00,WNW,296,3.0,-999.0,50,0.00,,,-99.99,,2013-02-23 20:42:00,
2013-02-23 12:52:00,56.0,38.0,-100.00,WNW,296,3.0,-999.0,50,0.00,,,-99.99,,2013-02-23 20:52:00,
2013-02-23 13:00:00,57.0,38.0,-100.00,WNW,303,3.0,-999.0,47,0.00,,,-99.99,,2013-02-23 21:00:00,
2013-02-23 13:22:00,57.0,38.0,-100.00,WNW,303,3.0,-999.0,47,0.00,,,-99.99,,2013-02-23 21:22:00,
2013-02-23 13:32:00,57.0,38.0,-100.00,WNW,303,3.0,-999.0,47,0.00,,,-99.99,,2013-02-23 21:32:00,
2013-02-23 13:42:00,57.0,38.0,-100.00,WNW,303,3.0,-999.0,47,0.00,,,-99.99,,2013-02-23 21:42:00,
2013-02-23 13:52:00,57.0,38.0,-100.00,WNW,303,3.0,-999.0,47,0.00,,,-99.99,,2013-02-23 21:52:00,
2013-02-23 14:00:00,59.0,42.0,-100.00,WNW,282,15.0,-999.0,54,0.00,,,-99.99,,2013-02-23 22:00:00,
2013-02-23 14:22:00,59.0,42.0,-100.00,WNW,282,15.0,-999.0,54,0.00,,,-99.99,,2013-02-23 22:22:00,
2013-02-23 14:32:00,59.0,42.0,-100.00,WNW,282,15.0,-999.0,54,0.00,,,-99.99,,2013-02-23 22:32:00,
2013-02-23 14:42:00,59.0,42.0,-100.00,WNW,282,15.0,-999.0,54,0.00,,,-99.99,,2013-02-23 22:42:00,
2013-02-23 14:52:00,59.0,42.0,-100.00,WNW,282,15.0,-999.0,54,0.00,,,-99.99,,2013-02-23 22:52:00,
2013-02-23 15:00:00,58.0,41.0,-100.00,NW,319,8.0,-999.0,52,0.00,,,-99.99,,2013-02-23 23:00:00,
2013-02-23 15:22:00,58.0,41.0,-100.00,NW,319,8.0,-999.0,52,0.00,,,-99.99,,2013-02-23 23:22:00,
2013-02-23 15:32:00,58.0,41.0,-100.00,NW,319,8.0,-999.0,52,0.00,,,-99.99,,2013-02-23 23:32:00,
2013-02-23 15:42:00,58.0,41.0,-100.00,NW,319,8.0,-999.0,52,0.00,,,-99.99,,2013-02-23 23:42:00,
2013-02-23 15:52:00,58.0,41.0,-100.00,NW,319,8.0,-999.0,52,0.00,,,-99.99,,2013-02-23 23:52:00,
2013-02-23 16:00:00,58.0,40.0,-100.00,NW,321,6.0,-999.0,50,0.00,,,-99.99,,2013-02-24 00:00:00,
2013-02-23 16:22:00,58.0,40.0,-100.00,NW,321,6.0,-999.0,50,0.00,,,-99.99,,2013-02-24 00:22:00,
2013-02-23 16:32:00,58.0,40.0,-100.00,NW,321,6.0,-999.0,50,0.00,,,-99.99,,2013-02-24 00:32:00,
2013-02-23 16:42:00,58.0,40.0,-100.00,NW,321,6.0,-999.0,50,0.00,,,-99.99,,2013-02-24 00:42:00,
2013-02-23 16:52:00,58.0,40.0,-100.00,NW,321,6.0,-999.0,50,0.00,,,-99.99,,2013-02-24 00:52:00,
2013-02-23 17:00:00,58.0,39.0,-100.00,NW,314,10.0,-999.0,49,0.00,,,-99.99,,2013-02-24 01:00:00,
2013-02-23 17:22:00,58.0,39.0,-100.00,NW,314,10.0,-999.0,49,0.00,,,-99.99,,2013-02-24 01:22:00,
2013-02-23 17:32:00,58.0,39.0,-100.00,NW,314,10.0,-999.0,49,0.00,,,-99.99,,2013-02-24 01:32:00,
2013-02-23 17:42:00,58.0,39.0,-100.00,NW,314,10.0,-999.0,49,0.00,,,-99.99,,2013-02-24 01:42:00,
2013-02-23 17:52:00,58.0,39.0,-100.00,NW,314,10.0,-999.0,49,0.00,,,-99.99,,2013-02-24 01:52:00,
2013-02-23 18:00:00,55.0,39.0,-100.00,NW,314,11.0,-999.0,54,0.00,,,-99.99,,2013-02-24 02:00:00,
2013-02-23 18:22:00,55.0,39.0,-100.00,NW,314,11.0,-999.0,54,0.00,,,-99.99,,2013-02-24 02:22:00,
2013-02-23 18:32:00,55.0,39.0,-100.00,NW,314,11.0,-999.0,54,0.00,,,-99.99,,2013-02-24 02:32:00,
2013-02-23 18:42:00,55.0,39.0,-100.00,NW,314,11.0,-999.0,54,0.00,,,-99.99,,2013-02-24 02:42:00,
2013-02-23 18:52:00,55.0,39.0,-100.00,NW,314,11.0,-999.0,54,0.00,,,-99.99,,2013-02-24 02:52:00,
2013-02-23 19:00:00,50.0,39.0,-100.00,SW,231,4.0,-999.0,64,0.00,,,-99.99,,2013-02-24 03:00:00,
2013-02-23 19:22:00,50.0,39.0,-100.00,SW,231,4.0,-999.0,64,0.00,,,-99.99,,2013-02-24 03:22:00,
2013-02-23 19:32:00,50.0,39.0,-100.00,SW,231,4.0,-999.0,64,0.00,,,-99.99,,2013-02-24 03:32:00,
2013-02-23 19:42:00,50.0,39.0,-100.00,SW,231,4.0,-999.0,64,0.00,,,-99.99,,2013-02-24 03:42:00,
2013-02-23 19:52:00,50.0,39.0,-100.00,SW,231,4.0,-999.0,64,0.00,,,-99.99,,2013-02-24 03:52:00,
2013-02-23 20:00:00,46.0,38.0,-100.00,WSW,248,5.0,-999.0,73,0.00,,,-99.99,,2013-02-24 04:00:00,
2013-02-23 20:22:00,46.0,38.0,-100.00,WSW,248,5.0,-999.0,73,0.00,,,-99.99,,2013-02-24 04:22:00,
2013-02-23 20:32:00,46.0,38.0,-100.00,WSW,248,5.0,-999.0,73,0.00,,,-99.99,,2013-02-24 04:32:00,
2013-02-23 20:42:00,46.0,38.0,-100.00,WSW,248,5.0,-999.0,73,0.00,,,-99.99,,2013-02-24 04:42:00,
2013-02-23 20:52:00,46.0,38.0,-100.00,WSW,248,5.0,-999.0,73,0.00,,,-99.99,,2013-02-24 04:52:00,
2013-02-23 21:00:00,45.0,38.0,-100.00,SSW,207,3.0,-999.0,76,0.00,,,-99.99,,2013-02-24 05:00:00,
2013-02-23 21:22:00,45.0,38.0,-100.00,SSW,207,3.0,-999.0,76,0.00,,,-99.99,,2013-02-24 05:22:00,
2013-02-23 21:32:00,45.0,38.0,-100.00,SSW,207,3.0,-999.0,76,0.00,,,-99.99,,2013-02-24 05:32:00,
2013-02-23 21:42:00,45.0,38.0,-100.00,SSW,207,3.0,-999.0,76,0.00,,,-99.99,,2013-02-24 05:42:00,
2013-02-23 21:52:00,45.0,38.0,-100.00,SSW,207,3.0,-999.0,76,0.00,,,-99.99,,2013-02-24 05:52:00,
2013-02-23 22:00:00,40.0,35.0,-100.00,SE,137,5.0,-999.0,81,0.00,,,-99.99,,2013-02-24 06:00:00,
2013-02-23 22:21:00,40.0,35.0,-100.00,SE,137,5.0,-999.0,81,0.00,,,-99.99,,2013-02-24 06:21:00,
2013-02-23 22:32:00,40.0,35.0,-100.00,SE,137,5.0,-999.0,81,0.00,,,-99.99,,2013-02-24 06:32:00,
2013-02-23 22:42:00,40.0,35.0,-100.00,SE,137,5.0,-999.0,81,0.00,,,-99.99,,2013-02-24 06:42:00,
2013-02-23 22:52:00,40.0,35.0,-100.00,SE,137,5.0,-999.0,81,0.00,,,-99.99,,2013-02-24 06:52:00,
2013-02-23 23:00:00,42.0,35.0,-100.00,SSW,209,5.0,-999.0,75,0.00,,,-99.99,,2013-02-24 07:00:00,
2013-02-23 23:22:00,42.0,35.0,-100.00,SSW,209,5.0,-999.0,75,0.00,,,-99.99,,2013-02-24 07:22:00,
2013-02-23 23:32:00,42.0,35.0,-100.00,SSW,209,5.0,-999.0,75,0.00,,,-99.99,,2013-02-24 07:32:00,
2013-02-23 23:42:00,42.0,35.0,-100.00,SSW,209,5.0,-999.0,75,0.00,,,-99.99,,2013-02-24 07:42:00,
2013-02-23 23:52:00,42.0,35.0,-100.00,SSW,209,5.0,-999.0,75,0.00,,,-99.99,,2013-02-24 07:52:00,